createdAt,value
2022-09-21T09:46:49.840Z,0.90
2022-09-21T09:51:51.821Z,1.10
2022-09-21T09:54:20.626Z,0.80
2022-09-21T09:56:47.106Z,0.73
2022-09-21T09:59:29.329Z,0.80
2022-09-21T10:02:02.508Z,0.90
2022-09-21T10:04:29.319Z,0.80
2022-09-21T10:06:56.237Z,0.80
2022-09-21T10:09:27.843Z,0.75
2022-09-21T10:11:58.118Z,0.70
2022-09-21T10:14:27.160Z,0.60
2022-09-21T10:16:55.899Z,0.80
2022-09-21T10:19:26.828Z,0.60
2022-09-21T10:21:57.634Z,0.90
2022-09-21T10:24:27.828Z,0.65
2022-09-21T10:26:56.309Z,0.80
2022-09-21T10:29:31.709Z,0.60
2022-09-21T10:32:00.261Z,0.60
2022-09-21T10:34:29.812Z,0.57
2022-09-21T10:36:58.182Z,0.80
2022-09-21T10:39:28.162Z,0.70
2022-09-21T10:41:59.393Z,0.60
2022-09-21T10:44:29.501Z,0.60
2022-09-21T10:49:29.918Z,0.65
2022-09-21T10:51:58.179Z,0.60
2022-09-21T10:54:27.963Z,0.60
2022-09-21T10:56:57.924Z,0.70
2022-09-21T10:59:27.150Z,0.60
2022-09-21T11:01:55.696Z,0.80
2022-09-21T11:04:31.198Z,0.52
2022-09-21T11:07:04.639Z,0.70
2022-09-21T11:09:36.382Z,0.70
2022-09-21T11:12:11.543Z,0.70
2022-09-21T11:14:46.353Z,0.70
2022-09-21T11:17:19.956Z,0.55
2022-09-21T11:19:53.949Z,0.52
2022-09-21T11:25:04.786Z,0.50
2022-09-21T11:27:35.832Z,0.57
2022-09-21T11:30:06.477Z,0.70
2022-09-21T11:32:51.353Z,0.70
2022-09-21T11:35:39.461Z,0.60
2022-09-21T11:38:12.981Z,0.52
2022-09-21T11:40:55.106Z,0.60
2022-09-21T11:43:36.327Z,0.47
2022-09-21T11:46:13.204Z,0.57
2022-09-21T11:48:52.318Z,0.75
2022-09-21T11:51:34.900Z,0.55
2022-09-21T11:54:37.053Z,0.63
2022-09-21T11:57:09.311Z,0.77
2022-09-21T11:59:45.613Z,0.60
2022-09-21T12:02:34.606Z,0.75
2022-09-21T12:05:07.314Z,0.68
2022-09-21T12:07:53.481Z,0.70
2022-09-21T12:10:39.085Z,0.65
2022-09-21T12:13:13.645Z,0.50
2022-09-21T12:15:46.275Z,0.70
2022-09-21T12:18:21.956Z,0.75
2022-09-21T12:20:53.417Z,0.68
2022-09-21T12:23:27.075Z,0.50
2022-09-21T12:25:57.547Z,0.68
2022-09-21T12:28:29.922Z,0.60
2022-09-21T12:31:02.735Z,0.50
2022-09-21T12:33:36.789Z,0.70
2022-09-21T12:38:39.936Z,0.50
2022-09-21T12:41:14.787Z,0.68
2022-09-21T12:43:44.389Z,0.55
2022-09-21T12:46:16.163Z,0.63
2022-09-21T12:48:42.746Z,0.52
2022-09-21T12:51:14.642Z,0.50
2022-09-21T12:53:50.435Z,0.50
2022-09-21T12:56:31.712Z,0.50
2022-09-21T12:59:10.610Z,0.60
2022-09-21T13:01:44.112Z,0.50
2022-09-21T13:04:30.508Z,0.60
2022-09-21T13:07:28.412Z,0.50
2022-09-21T13:09:57.385Z,0.50
2022-09-21T13:12:28.904Z,0.60
2022-09-21T13:15:02.715Z,0.60
2022-09-21T13:17:32.071Z,0.60
2022-09-21T13:20:02.455Z,0.57
2022-09-21T13:22:31.949Z,0.63
2022-09-21T13:25:03.900Z,0.70
2022-09-21T13:27:59.559Z,0.65
2022-09-21T13:30:38.656Z,0.50
2022-09-21T13:33:38.631Z,0.50
2022-09-21T13:36:33.365Z,0.60
2022-09-21T13:39:14.498Z,0.50
2022-09-21T13:42:01.797Z,0.65
2022-09-21T13:44:42.639Z,0.50
2022-09-21T13:47:09.860Z,0.73
2022-09-21T13:49:44.943Z,0.60
2022-09-21T13:52:29.358Z,0.55
2022-09-21T13:54:58.325Z,0.50
2022-09-21T13:57:29.885Z,0.35
2022-09-21T14:00:07.893Z,0.60
2022-09-21T14:02:37.492Z,0.50
2022-09-21T14:05:09.394Z,0.50
2022-09-21T14:07:37.716Z,0.43
2022-09-21T14:10:07.484Z,0.50
2022-09-21T14:12:41.362Z,0.50
2022-09-21T14:15:28.223Z,0.50
2022-09-21T14:18:21.679Z,0.50
2022-09-21T14:21:17.235Z,0.50
2022-09-21T14:24:17.406Z,0.57
2022-09-21T14:26:54.484Z,0.40
2022-09-21T14:29:25.541Z,0.50
2022-09-21T14:31:54.842Z,0.60
2022-09-21T14:34:25.881Z,0.40
2022-09-21T14:36:56.153Z,0.50
2022-09-21T14:39:29.537Z,0.40
2022-09-21T14:42:01.084Z,0.50
2022-09-21T14:44:30.079Z,0.50
2022-09-21T14:47:20.154Z,0.40
2022-09-21T14:50:06.163Z,0.40
2022-09-21T14:52:47.241Z,0.60
2022-09-21T14:55:18.723Z,0.50
2022-09-21T14:58:15.442Z,0.40
2022-09-21T15:00:43.996Z,0.50
2022-09-21T15:03:33.807Z,0.45
2022-09-21T15:06:08.649Z,0.50
2022-09-21T15:08:52.643Z,0.50
2022-09-21T15:11:26.563Z,0.55
2022-09-21T15:14:13.439Z,0.57
2022-09-21T15:16:42.142Z,0.73
2022-09-21T15:19:14.550Z,0.60
2022-09-21T15:21:42.739Z,0.70
2022-09-21T15:24:27.381Z,0.57
2022-09-21T15:27:01.841Z,0.40
2022-09-21T15:29:32.289Z,0.60
2022-09-21T15:32:00.378Z,0.32
2022-09-21T15:34:27.787Z,0.50
2022-09-21T15:39:32.304Z,0.40
2022-09-21T15:42:14.644Z,0.52
2022-09-21T15:44:42.464Z,0.47
2022-09-21T15:47:12.893Z,0.70
2022-09-21T15:49:40.177Z,0.45
2022-09-21T15:54:39.969Z,0.40
2022-09-21T15:57:28.542Z,0.63
2022-09-21T15:59:56.558Z,0.50
2022-09-21T16:02:26.542Z,0.50
2022-09-21T16:04:53.331Z,0.50
2022-09-21T16:07:32.400Z,0.50
2022-09-21T16:09:59.577Z,0.50
2022-09-21T16:12:42.046Z,0.70
2022-09-21T16:15:24.403Z,0.40
2022-09-21T16:17:57.164Z,0.50
2022-09-21T16:20:25.457Z,0.50
2022-09-21T16:23:02.896Z,0.60
2022-09-21T16:25:31.436Z,0.38
2022-09-21T16:28:00.638Z,0.45
2022-09-21T16:30:44.081Z,0.47
2022-09-21T16:33:36.127Z,0.50
2022-09-21T16:36:03.121Z,0.60
2022-09-21T16:38:29.810Z,0.40
2022-09-21T16:40:56.406Z,0.50
2022-09-21T16:43:23.183Z,0.40
2022-09-21T16:45:51.022Z,0.60
2022-09-21T16:48:17.521Z,0.45
2022-09-21T16:50:44.021Z,0.40
2022-09-21T16:53:10.489Z,0.47
2022-09-21T16:55:36.964Z,0.50
2022-09-21T16:58:03.458Z,0.40
2022-09-21T17:00:36.019Z,0.50
2022-09-21T17:03:03.853Z,0.40
2022-09-21T17:05:30.387Z,0.50
2022-09-21T17:07:58.714Z,0.50
2022-09-21T17:10:29.022Z,0.50
2022-09-21T17:12:55.605Z,0.40
2022-09-21T17:15:22.585Z,0.50
2022-09-21T17:17:49.740Z,0.50
2022-09-21T17:22:45.442Z,0.40
2022-09-21T17:25:11.992Z,0.47
2022-09-21T17:27:38.487Z,0.50
2022-09-21T17:30:11.476Z,0.40
2022-09-21T17:32:38.829Z,0.40
2022-09-21T17:35:15.245Z,0.60
2022-09-21T17:37:43.118Z,0.50
2022-09-21T17:40:11.489Z,0.50
2022-09-21T17:42:40.260Z,0.60
2022-09-21T17:45:19.236Z,0.50
2022-09-21T17:47:46.152Z,0.50
2022-09-21T17:50:20.720Z,0.52
2022-09-21T17:52:49.008Z,0.50
2022-09-21T17:55:16.056Z,0.50
2022-09-21T17:57:53.477Z,0.50
2022-09-21T18:00:23.163Z,0.50
2022-09-21T18:02:50.331Z,0.60
2022-09-21T18:05:24.569Z,0.40
2022-09-21T18:07:53.172Z,0.50
2022-09-21T18:10:20.931Z,0.50
2022-09-21T18:13:16.028Z,0.50
2022-09-21T18:15:55.142Z,0.50
2022-09-21T18:18:37.863Z,0.50
2022-09-21T18:21:09.019Z,0.50
2022-09-21T18:23:51.118Z,0.60
2022-09-21T18:26:18.054Z,0.60
2022-09-21T18:28:46.460Z,0.50
2022-09-21T18:31:34.672Z,0.55
2022-09-21T18:34:13.975Z,0.60
2022-09-21T18:36:48.035Z,0.70
2022-09-21T18:42:05.125Z,0.50
2022-09-21T18:44:38.814Z,0.60
2022-09-21T18:47:11.117Z,0.68
2022-09-21T18:49:48.758Z,0.50
2022-09-21T18:52:26.236Z,0.60
2022-09-21T18:54:54.394Z,0.45
2022-09-21T18:57:21.345Z,0.45
2022-09-21T18:59:48.393Z,0.50
2022-09-21T19:02:17.555Z,0.60
2022-09-21T19:04:45.980Z,0.52
2022-09-21T19:07:20.811Z,0.60
2022-09-21T19:09:54.787Z,0.77
2022-09-21T19:12:36.649Z,0.70
2022-09-21T19:15:36.440Z,0.60
2022-09-21T19:18:18.631Z,0.60
2022-09-21T19:20:58.648Z,0.63
2022-09-21T19:23:35.598Z,0.50
2022-09-21T19:26:07.005Z,0.80
2022-09-21T19:28:52.445Z,0.70
2022-09-21T19:31:19.296Z,0.70
2022-09-21T19:33:51.337Z,0.60
2022-09-21T19:36:18.507Z,0.60
2022-09-21T19:38:45.285Z,0.80
2022-09-21T19:41:30.909Z,0.75
2022-09-21T19:44:08.538Z,0.85
2022-09-21T19:46:41.019Z,0.95
2022-09-21T19:49:15.852Z,0.75
2022-09-21T19:51:46.645Z,0.80
2022-09-21T19:54:14.805Z,1.17
2022-09-21T19:56:46.836Z,1.00
2022-09-21T19:59:15.020Z,1.00
2022-09-21T20:01:48.205Z,1.08
2022-09-21T20:04:15.344Z,1.10
2022-09-21T20:06:47.560Z,0.98
2022-09-21T20:09:19.434Z,1.00
2022-09-21T20:11:50.368Z,1.30
2022-09-21T20:14:27.609Z,0.95
2022-09-21T20:16:56.445Z,1.23
2022-09-21T20:19:32.976Z,1.15
2022-09-21T20:22:03.636Z,1.13
2022-09-21T20:24:34.577Z,1.30
2022-09-21T20:27:03.173Z,1.30
2022-09-21T20:29:30.990Z,1.30
2022-09-21T20:31:57.485Z,1.10
2022-09-21T20:34:23.962Z,1.00
2022-09-21T20:36:50.429Z,1.20
2022-09-21T20:39:16.904Z,1.27
2022-09-21T20:41:43.373Z,1.20
2022-09-21T20:44:12.217Z,1.17
2022-09-21T20:46:40.057Z,1.10
2022-09-21T20:49:06.544Z,1.20
2022-09-21T20:51:33.218Z,1.20
2022-09-21T20:54:00.268Z,1.00
2022-09-21T20:56:26.724Z,1.10
2022-09-21T20:58:53.212Z,1.25
2022-09-21T21:01:20.150Z,0.90
2022-09-21T21:03:48.026Z,1.20
2022-09-21T21:06:16.647Z,1.00
2022-09-21T21:08:43.153Z,1.10
2022-09-21T21:11:09.622Z,1.30
2022-09-21T21:13:36.718Z,1.02
2022-09-21T21:16:06.980Z,1.10
2022-09-21T21:18:38.065Z,1.15
2022-09-21T21:21:06.055Z,1.00
2022-09-21T21:23:32.668Z,1.10
2022-09-21T21:26:04.346Z,1.00
2022-09-21T21:28:30.823Z,1.30
2022-09-21T21:30:57.328Z,1.02
2022-09-21T21:33:23.868Z,1.20
2022-09-21T21:35:50.389Z,1.08
2022-09-21T21:38:18.224Z,1.10
2022-09-21T21:40:44.715Z,0.98
2022-09-21T21:43:11.240Z,1.10
2022-09-21T21:45:37.780Z,1.00
2022-09-21T21:48:04.268Z,1.10
2022-09-21T21:50:30.746Z,1.10
2022-09-21T21:52:57.726Z,1.02
2022-09-21T21:55:25.561Z,1.00
2022-09-21T21:57:52.054Z,1.00
2022-09-21T22:00:18.688Z,1.35
2022-09-21T22:02:45.166Z,0.82
2022-09-21T22:05:11.685Z,0.90
2022-09-21T22:07:39.637Z,0.93
2022-09-21T22:10:07.089Z,1.00
2022-09-21T22:17:28.002Z,1.35
2022-09-21T22:19:54.478Z,0.90
2022-09-21T22:22:21.120Z,0.90
2022-09-21T22:24:47.588Z,1.00
2022-09-21T22:27:14.135Z,1.08
2022-09-21T22:29:41.970Z,1.00
2022-09-21T22:32:08.466Z,0.98
2022-09-21T22:34:34.964Z,1.08
2022-09-21T22:37:01.456Z,1.00
2022-09-21T22:39:27.925Z,1.02
2022-09-21T22:41:54.464Z,1.08
2022-09-21T22:44:20.939Z,1.00
2022-09-21T22:46:48.757Z,1.02
2022-09-21T22:49:15.208Z,1.05
2022-09-21T22:51:41.688Z,0.98
2022-09-21T22:54:08.148Z,1.10
2022-09-21T22:56:35.046Z,1.00
2022-09-21T22:59:03.538Z,0.82
2022-09-21T23:01:32.073Z,1.02
2022-09-21T23:04:01.605Z,0.80
2022-09-21T23:06:29.766Z,1.10
2022-09-21T23:08:57.463Z,1.00
2022-09-21T23:11:25.893Z,0.80
2022-09-21T23:13:53.701Z,0.82
2022-09-21T23:16:20.306Z,0.90
2022-09-21T23:18:48.621Z,0.82
2022-09-21T23:21:18.585Z,0.80
2022-09-21T23:23:45.826Z,0.90
2022-09-21T23:26:14.034Z,0.90
2022-09-21T23:28:42.420Z,0.90
2022-09-21T23:31:10.769Z,1.10
2022-09-21T23:33:39.077Z,1.02
2022-09-21T23:36:07.248Z,0.93
2022-09-21T23:38:35.881Z,0.90
2022-09-21T23:41:04.392Z,1.00
2022-09-21T23:43:30.967Z,0.90
2022-09-21T23:45:57.936Z,0.90
2022-09-21T23:48:24.584Z,0.90
2022-09-21T23:50:51.145Z,0.93
2022-09-21T23:53:17.637Z,0.95
2022-09-21T23:55:45.463Z,0.90
2022-09-21T23:58:11.977Z,0.80
